York, Wisconsin
Current Conditions -  °F | °C
As of 5:54 AM on Friday 28 Nov 2014 (Local Time) from KMFI Reporting Station
Light Snow Light Snow  
Wind Chill: -20°   Ceiling: 7000
Heat Index: -13°   Visibility: 4mi
Dew Point: -16°   Wind: 8mph
Humidity: 80%   Direction: 150°SSE
Pressure: 30.13"   Gusts: NA
Location:  44.5388°N, 90.4382°W
Report Text: KMFI 281154Z AUTO 15007KT 4SM -SN FEW044 SCT055 OVC070 M13/M16 A3013 RMK AO2 SLP237 P0000 60000 T11281156 11128 21156 56034
Loading
Personal Weather Stations






























Interactive Weather Map New forecast layout! Learn more

10-Day Weather Forecast

Advertisements
Track Severe Weather on mobile